Hlavní strana
METAR-TAF:

METAR-TAF

Letiště :

St. Gallen, Švýcarsko

zeměpisná šířka: 47-29-06N, zeměpisná délka: 009-33-43E, výška: 398 m

Aktuální stav počasí

Zpráva byla vytvořena před 34 minutami, v 04:20 UTC
vítr z různých směrů 1 kt
Teplota 0°C
Vlhkost vzduchu 100%
Tlak 1024 hPa
Viditelnost: 4700 m
Oblačno až skoro zataženo
slabé sněžení

METAR: LSZR 180420Z AUTO VRB01KT 4700 -SN BKN/// 00/M00 Q1024

Čas: 05:54 (04:54 UTC)

Předpověď počasí

Zpráva byla vytvořena před 11 hodinami a 7 minutami, v 17:47 UTC
Předpověď platná od 17 v 17 UTC do 17 v 24 UTC
Západoseverozápadní vítr 6 kt
Viditelnost: 7000 m
Oblačno až skoro zataženo ve výšce 700 ft
slabé sněžení
Pravděpodobnost 40% :
Dočasný
od 17 v 18 UTC do 17 v 24 UTC
Viditelnost: 2000 m
Oblačno až skoro zataženo ve výšce 400 ft
sníh

TAF: LSZR 171747Z 1717/1724 29006KT 7000 -SN BKN007 PROB40 TEMPO 1718/1724 2000 SN BKN004

Stav a předpovědi počasí z více než 4 000 letišť (zprávy METAR a TAF).

Červené a žluté tečky na mapě představují dostupné meteorologické stanice.

Když kurzor umístíte na tečku, zobrazí se název stanice.

Pak kliknutím zobrazíte stav a předpověď počasí.

Chcete-li změnit mapu, kliknutím na zelené tlačítko se znaménkem +mapu přiblížíte, kliknutím na zelené tlačítko se znaménkem – mapu oddálíte a kliknutím na zelené šipky přejdete na sousední mapy.


METAR-TAF: